createdAt,value
2023-06-25T00:00:52.575Z,100223.02
2023-06-25T00:03:20.408Z,100229.30
2023-06-25T00:05:48.346Z,100229.52
2023-06-25T00:08:15.984Z,100233.80
2023-06-25T00:10:43.784Z,100233.09
2023-06-25T00:13:11.514Z,100234.71
2023-06-25T00:15:39.216Z,100231.83
2023-06-25T00:18:07.004Z,100233.55
2023-06-25T00:20:35.864Z,100234.48
2023-06-25T00:23:06.744Z,100235.53
2023-06-25T00:25:35.363Z,100239.88
2023-06-25T00:28:03.028Z,100234.67
2023-06-25T00:30:30.888Z,100236.02
2023-06-25T00:32:58.601Z,100234.27
2023-06-25T00:35:28.685Z,100232.13
2023-06-25T00:37:58.283Z,100224.84
2023-06-25T00:40:26.925Z,100217.05
2023-06-25T00:43:00.690Z,100210.09
2023-06-25T00:45:28.353Z,100203.35
2023-06-25T00:47:56.542Z,100203.11
2023-06-25T00:50:26.624Z,100201.14
2023-06-25T00:52:54.283Z,100194.84
2023-06-25T00:55:22.160Z,100191.71
2023-06-25T00:57:49.913Z,100191.62
2023-06-25T01:00:21.317Z,100187.59
2023-06-25T01:03:05.769Z,100184.81
2023-06-25T01:05:47.565Z,100181.93
2023-06-25T01:08:16.104Z,100177.45
2023-06-25T01:10:43.755Z,100181.86
2023-06-25T01:13:11.435Z,100183.69
2023-06-25T01:15:39.398Z,100183.46
2023-06-25T01:18:08.107Z,100193.05
2023-06-25T01:20:39.731Z,100199.27
2023-06-25T01:23:07.493Z,100196.39
2023-06-25T01:25:37.998Z,100192.52
2023-06-25T01:28:06.809Z,100191.19
2023-06-25T01:30:34.576Z,100193.19
2023-06-25T01:33:02.252Z,100191.48
2023-06-25T01:35:30.409Z,100185.84
2023-06-25T01:38:01.070Z,100184.79
2023-06-25T01:40:28.698Z,100166.35
2023-06-25T01:42:57.287Z,100157.05
2023-06-25T01:45:24.945Z,100151.14
2023-06-25T01:47:52.937Z,100158.81
2023-06-25T01:50:20.700Z,100164.52
2023-06-25T01:52:49.470Z,100161.70
2023-06-25T01:55:17.332Z,100156.36
2023-06-25T01:57:45.095Z,100145.40
2023-06-25T02:00:14.020Z,100143.48
2023-06-25T02:02:45.086Z,100143.40
2023-06-25T02:05:13.103Z,100146.52
2023-06-25T02:07:40.811Z,100142.02
2023-06-25T02:10:09.037Z,100136.11
2023-06-25T02:12:37.099Z,100129.89
2023-06-25T02:15:05.611Z,100123.55
2023-06-25T02:17:33.406Z,100120.77
2023-06-25T02:20:01.349Z,100123.21
2023-06-25T02:22:28.982Z,100135.41
2023-06-25T02:24:56.686Z,100149.52
2023-06-25T02:27:24.316Z,100168.80
2023-06-25T02:29:51.971Z,100195.79
2023-06-25T02:32:19.640Z,100210.09
2023-06-25T02:34:48.734Z,100215.17
2023-06-25T02:37:16.724Z,100212.92
2023-06-25T02:39:44.357Z,100207.48
2023-06-25T02:42:12.168Z,100202.15
2023-06-25T02:44:39.888Z,100196.14
2023-06-25T02:47:07.622Z,100188.55
2023-06-25T02:49:35.778Z,100189.45
2023-06-25T02:52:05.027Z,100191.15
2023-06-25T02:54:32.720Z,100192.79
2023-06-25T02:57:00.352Z,100187.03
2023-06-25T02:59:27.909Z,100181.23
2023-06-25T03:01:55.993Z,100178.30
2023-06-25T03:04:23.641Z,100176.10
2023-06-25T03:06:51.581Z,100175.80
2023-06-25T03:09:19.631Z,100172.00
2023-06-25T03:11:47.378Z,100171.45
2023-06-25T03:14:29.948Z,100174.60
2023-06-25T03:17:03.894Z,100176.60
2023-06-25T03:19:31.734Z,100175.63
2023-06-25T03:22:00.040Z,100164.83
2023-06-25T03:24:28.592Z,100161.93
2023-06-25T03:26:56.257Z,100156.59
2023-06-25T03:29:23.938Z,100155.31
2023-06-25T03:31:51.577Z,100156.82
2023-06-25T03:34:21.408Z,100161.57
2023-06-25T03:36:49.566Z,100160.57
2023-06-25T03:39:17.636Z,100163.95
2023-06-25T03:41:45.300Z,100164.27
2023-06-25T03:44:13.166Z,100159.85
2023-06-25T03:46:41.566Z,100167.94
2023-06-25T03:49:09.204Z,100162.20
2023-06-25T03:51:37.401Z,100163.60
2023-06-25T03:54:05.553Z,100159.13
2023-06-25T03:56:33.421Z,100158.36
2023-06-25T03:59:01.083Z,100152.77
2023-06-25T04:01:28.919Z,100159.87
2023-06-25T04:03:58.918Z,100159.35
2023-06-25T04:06:26.536Z,100159.63
2023-06-25T04:08:54.238Z,100154.89
2023-06-25T04:11:21.853Z,100150.50
2023-06-25T04:13:49.715Z,100145.00
2023-06-25T04:16:17.396Z,100143.79
2023-06-25T04:18:45.862Z,100145.86
2023-06-25T04:21:13.658Z,100145.40
2023-06-25T04:23:42.003Z,100145.74
2023-06-25T04:26:09.913Z,100152.30
2023-06-25T04:28:37.850Z,100151.13
2023-06-25T04:31:05.914Z,100149.75
2023-06-25T04:33:34.830Z,100154.17
2023-06-25T04:36:02.774Z,100155.56
2023-06-25T04:38:30.770Z,100154.26
2023-06-25T04:40:58.402Z,100152.98
2023-06-25T04:43:26.475Z,100149.27
2023-06-25T04:45:55.682Z,100149.02
2023-06-25T04:48:23.357Z,100149.80
2023-06-25T04:50:51.471Z,100147.92
2023-06-25T04:53:19.281Z,100140.65
2023-06-25T04:55:46.977Z,100138.73
2023-06-25T04:58:14.700Z,100139.65
2023-06-25T05:00:42.463Z,100144.42
2023-06-25T05:03:10.391Z,100145.84
2023-06-25T05:05:38.344Z,100145.12
2023-06-25T05:08:06.387Z,100150.13
2023-06-25T05:10:34.033Z,100153.95
2023-06-25T05:13:02.036Z,100153.54
2023-06-25T05:15:29.762Z,100158.30
2023-06-25T05:17:57.451Z,100158.56
2023-06-25T05:20:25.086Z,100158.58
2023-06-25T05:22:52.750Z,100157.55
2023-06-25T05:25:20.451Z,100156.41
2023-06-25T05:27:48.197Z,100158.13
2023-06-25T05:30:16.513Z,100155.41
2023-06-25T05:32:44.228Z,100152.92
2023-06-25T05:35:11.980Z,100153.55
2023-06-25T05:37:39.648Z,100153.41
2023-06-25T05:40:08.238Z,100155.82
2023-06-25T05:42:35.911Z,100157.60
2023-06-25T05:45:04.166Z,100161.48
2023-06-25T05:47:31.876Z,100166.27
2023-06-25T05:49:59.598Z,100168.99
2023-06-25T05:52:27.783Z,100169.75
2023-06-25T05:54:55.532Z,100170.48
2023-06-25T05:57:23.187Z,100170.92
2023-06-25T05:59:50.867Z,100177.48
2023-06-25T06:02:18.511Z,100179.57
2023-06-25T06:04:46.304Z,100185.69
2023-06-25T06:07:13.947Z,100189.40
2023-06-25T06:09:41.616Z,100190.50
2023-06-25T06:12:09.776Z,100196.34
2023-06-25T06:14:39.588Z,100197.21
2023-06-25T06:17:07.279Z,100199.11
2023-06-25T06:19:34.907Z,100198.35
2023-06-25T06:22:02.604Z,100196.32
2023-06-25T06:24:30.235Z,100197.63
2023-06-25T06:26:59.245Z,100195.05
2023-06-25T06:29:27.821Z,100190.21
2023-06-25T06:31:55.471Z,100188.44
2023-06-25T06:34:23.267Z,100193.61
2023-06-25T06:36:51.004Z,100196.48
2023-06-25T06:39:18.710Z,100191.41
2023-06-25T06:41:46.326Z,100187.08
2023-06-25T06:44:16.457Z,100181.89
2023-06-25T06:46:44.445Z,100183.30
2023-06-25T06:49:12.286Z,100184.80
2023-06-25T06:51:42.314Z,100181.71
2023-06-25T06:54:10.163Z,100179.89
2023-06-25T06:56:38.919Z,100179.23
2023-06-25T06:59:07.254Z,100176.39
2023-06-25T07:01:35.774Z,100169.70
2023-06-25T07:04:03.612Z,100175.73
2023-06-25T07:06:31.287Z,100177.77
2023-06-25T07:08:59.210Z,100182.31
2023-06-25T07:11:26.876Z,100183.34
2023-06-25T07:13:54.531Z,100189.95
2023-06-25T07:16:22.213Z,100186.51
2023-06-25T07:18:49.768Z,100182.56
2023-06-25T07:21:17.622Z,100183.26
2023-06-25T07:23:45.290Z,100190.27
2023-06-25T07:26:13.362Z,100195.58
2023-06-25T07:28:41.023Z,100197.38
2023-06-25T07:31:08.720Z,100201.85
2023-06-25T07:33:37.075Z,100200.13
2023-06-25T07:36:05.333Z,100200.64
2023-06-25T07:38:33.036Z,100202.29
2023-06-25T07:41:00.654Z,100205.56
2023-06-25T07:43:29.982Z,100206.22
2023-06-25T07:45:57.900Z,100210.41
2023-06-25T07:48:25.591Z,100207.84
2023-06-25T07:50:53.691Z,100206.91
2023-06-25T07:53:21.323Z,100208.96
2023-06-25T07:56:01.788Z,100206.61
2023-06-25T07:58:31.536Z,100204.35
2023-06-25T08:00:59.253Z,100208.79
2023-06-25T08:03:27.041Z,100207.75
2023-06-25T08:05:54.906Z,100206.44
2023-06-25T08:08:22.546Z,100206.13
2023-06-25T08:10:53.531Z,100195.71
2023-06-25T08:13:22.205Z,100195.69
2023-06-25T08:15:49.940Z,100197.77
2023-06-25T08:18:17.620Z,100195.05
2023-06-25T08:20:45.386Z,100191.34
2023-06-25T08:23:13.362Z,100183.77
2023-06-25T08:25:41.680Z,100183.93
2023-06-25T08:28:09.476Z,100182.16
2023-06-25T08:30:37.141Z,100182.73
2023-06-25T08:33:04.815Z,100177.33
2023-06-25T08:35:32.475Z,100177.52
2023-06-25T08:38:00.125Z,100181.94
2023-06-25T08:40:28.536Z,100183.02
2023-06-25T08:42:56.194Z,100183.21
2023-06-25T08:45:23.733Z,100181.21
2023-06-25T08:47:57.338Z,100175.19
2023-06-25T08:50:25.172Z,100174.00
2023-06-25T08:52:52.853Z,100172.20
2023-06-25T08:55:20.624Z,100172.31
2023-06-25T08:57:48.591Z,100171.00
2023-06-25T09:00:18.270Z,100171.52
2023-06-25T09:02:46.071Z,100171.61
2023-06-25T09:05:15.149Z,100170.13
2023-06-25T09:07:46.465Z,100166.87
2023-06-25T09:10:14.542Z,100168.86
2023-06-25T09:12:45.849Z,100169.79
2023-06-25T09:15:13.483Z,100171.38
2023-06-25T09:17:41.225Z,100167.80
2023-06-25T09:20:09.932Z,100165.13
2023-06-25T09:22:58.732Z,100167.83
2023-06-25T09:25:30.271Z,100164.38
2023-06-25T09:27:59.945Z,100164.21
2023-06-25T09:30:27.559Z,100164.56
2023-06-25T09:32:56.424Z,100162.73
2023-06-25T09:35:26.878Z,100160.27
2023-06-25T09:37:54.914Z,100156.30
2023-06-25T09:40:22.869Z,100158.60
2023-06-25T09:42:53.335Z,100155.74
2023-06-25T09:45:21.882Z,100151.89
2023-06-25T09:47:50.862Z,100160.85
2023-06-25T09:50:21.509Z,100161.07
2023-06-25T09:53:01.047Z,100159.54
2023-06-25T09:55:29.664Z,100164.08
2023-06-25T09:57:57.825Z,100160.45
2023-06-25T10:00:26.336Z,100158.58
2023-06-25T10:02:54.286Z,100154.43
2023-06-25T10:05:22.532Z,100153.46
2023-06-25T10:07:50.201Z,100152.31
2023-06-25T10:10:25.501Z,100145.56
2023-06-25T10:12:53.504Z,100146.66
2023-06-25T10:15:39.999Z,100141.92
2023-06-25T10:18:08.106Z,100142.70
2023-06-25T10:20:37.108Z,100139.90
2023-06-25T10:23:04.904Z,100139.20
2023-06-25T10:25:32.947Z,100131.69
2023-06-25T10:28:05.511Z,100127.31
2023-06-25T10:30:40.298Z,100129.61
2023-06-25T10:33:08.406Z,100127.42
2023-06-25T10:35:43.481Z,100123.84
2023-06-25T10:38:11.187Z,100122.27
2023-06-25T10:40:40.124Z,100123.23
2023-06-25T10:43:07.943Z,100121.88
2023-06-25T10:45:35.921Z,100124.08
2023-06-25T10:48:12.770Z,100122.71
2023-06-25T10:50:40.658Z,100126.81
2023-06-25T10:53:13.133Z,100116.91
2023-06-25T10:55:44.926Z,100109.79
2023-06-25T10:58:15.874Z,100110.57
2023-06-25T11:00:43.599Z,100111.73
2023-06-25T11:03:12.220Z,100109.02
2023-06-25T11:05:44.041Z,100106.22
2023-06-25T11:08:11.845Z,100108.43
2023-06-25T11:10:39.876Z,100101.62
2023-06-25T11:13:11.435Z,100099.71
2023-06-25T11:15:41.598Z,100098.34
2023-06-25T11:18:09.964Z,100096.46
2023-06-25T11:20:41.603Z,100093.09
2023-06-25T11:23:12.219Z,100093.16
2023-06-25T11:25:40.914Z,100088.18
2023-06-25T11:28:13.521Z,100085.84
2023-06-25T11:30:45.042Z,100082.27
2023-06-25T11:33:17.384Z,100087.48
2023-06-25T11:35:51.778Z,100087.90
2023-06-25T11:38:30.253Z,100090.55
2023-06-25T11:41:01.105Z,100088.01
2023-06-25T11:43:29.485Z,100085.27
2023-06-25T11:46:01.790Z,100084.48
2023-06-25T11:48:30.318Z,100078.53
2023-06-25T11:51:07.780Z,100072.85
2023-06-25T11:53:35.551Z,100066.77
2023-06-25T11:56:03.345Z,100067.05
2023-06-25T11:58:31.186Z,100062.71
2023-06-25T12:00:58.985Z,100064.92
2023-06-25T12:03:26.710Z,100067.03
2023-06-25T12:05:54.589Z,100067.56
2023-06-25T12:08:22.247Z,100067.48
2023-06-25T12:10:50.311Z,100064.48
2023-06-25T12:13:17.993Z,100062.65
2023-06-25T12:15:45.635Z,100060.31
2023-06-25T12:18:13.331Z,100054.68
2023-06-25T12:20:43.621Z,100047.31
2023-06-25T12:23:11.394Z,100043.39
2023-06-25T12:25:40.278Z,100035.95
2023-06-25T12:28:08.065Z,100037.75
2023-06-25T12:30:35.940Z,100031.88
2023-06-25T12:33:03.614Z,100029.52
2023-06-25T12:35:31.338Z,100040.88
2023-06-25T12:37:59.101Z,100039.50
2023-06-25T12:40:26.761Z,100040.29
2023-06-25T12:42:56.474Z,100043.88
2023-06-25T12:45:24.447Z,100049.77
2023-06-25T12:47:52.154Z,100051.70
2023-06-25T12:50:19.879Z,100043.14
2023-06-25T12:52:47.586Z,100049.30
2023-06-25T12:55:15.314Z,100053.18
2023-06-25T12:57:43.065Z,100053.83
2023-06-25T13:00:17.570Z,100057.02
2023-06-25T13:02:48.886Z,100053.59
2023-06-25T13:05:16.999Z,100052.57
2023-06-25T13:07:44.686Z,100055.17
2023-06-25T13:10:12.427Z,100062.96
2023-06-25T13:12:40.290Z,100062.20
2023-06-25T13:15:08.582Z,100052.64
2023-06-25T13:17:36.256Z,100047.23
2023-06-25T13:20:04.822Z,100039.81
2023-06-25T13:22:32.480Z,100035.33
2023-06-25T13:25:00.208Z,100029.64
2023-06-25T13:27:27.812Z,100030.25
2023-06-25T13:29:55.467Z,100033.63
2023-06-25T13:32:23.313Z,100036.39
2023-06-25T13:34:51.222Z,100038.39
2023-06-25T13:37:19.186Z,100035.77
2023-06-25T13:39:46.825Z,100039.71
2023-06-25T13:42:14.513Z,100042.19
2023-06-25T13:44:42.149Z,100043.97
2023-06-25T13:47:09.853Z,100043.76
2023-06-25T13:49:37.475Z,100036.56
2023-06-25T13:52:06.016Z,100039.98
2023-06-25T13:54:33.824Z,100033.99
2023-06-25T13:57:01.385Z,100031.91
2023-06-25T13:59:29.180Z,100025.90
2023-06-25T14:01:56.836Z,100024.08
2023-06-25T14:04:24.677Z,100021.25
2023-06-25T14:06:52.460Z,100019.49
2023-06-25T14:09:20.410Z,100016.71
2023-06-25T14:11:48.176Z,100017.59
2023-06-25T14:14:15.839Z,100012.70
2023-06-25T14:16:45.174Z,100006.34
2023-06-25T14:19:13.717Z,100009.02
2023-06-25T14:21:41.612Z,100004.02
2023-06-25T14:24:09.350Z,100004.30
2023-06-25T14:26:37.224Z,100007.83
2023-06-25T14:29:11.174Z,100003.02
2023-06-25T14:31:40.276Z,99998.45
2023-06-25T14:34:09.324Z,100000.14
2023-06-25T14:36:37.100Z,99991.91
2023-06-25T14:39:07.015Z,99994.30
2023-06-25T14:41:35.326Z,99999.19
2023-06-25T14:44:03.054Z,99999.93
2023-06-25T14:46:30.976Z,99997.69
2023-06-25T14:48:58.775Z,99999.83
2023-06-25T14:51:26.534Z,99995.59
2023-06-25T14:53:54.221Z,99996.00
2023-06-25T14:56:21.975Z,99995.39
2023-06-25T14:58:49.630Z,99994.92
2023-06-25T15:01:17.528Z,99991.70
2023-06-25T15:03:45.357Z,99987.10
2023-06-25T15:06:23.994Z,99988.10
2023-06-25T15:09:00.878Z,99986.02
2023-06-25T15:11:28.514Z,99988.05
2023-06-25T15:13:59.264Z,99980.31
2023-06-25T15:16:27.842Z,99976.64
2023-06-25T15:18:55.495Z,99974.01
2023-06-25T15:21:23.183Z,99971.06
2023-06-25T15:23:51.535Z,99969.17
2023-06-25T15:26:19.199Z,99970.23
2023-06-25T15:28:50.343Z,99970.13
2023-06-25T15:31:18.499Z,99972.70
2023-06-25T15:33:46.420Z,99962.82
2023-06-25T15:36:14.150Z,99959.98
2023-06-25T15:38:41.944Z,99964.85
2023-06-25T15:41:10.083Z,99968.16
2023-06-25T15:43:37.750Z,99975.87
2023-06-25T15:46:05.623Z,99982.38
2023-06-25T15:48:33.780Z,99980.68
2023-06-25T15:51:01.669Z,99976.83
2023-06-25T15:53:29.321Z,99977.45
2023-06-25T15:55:57.418Z,99973.27
2023-06-25T15:58:24.941Z,99976.70
2023-06-25T16:00:52.715Z,99977.43
2023-06-25T16:03:20.503Z,99979.27
2023-06-25T16:05:48.448Z,99980.85
2023-06-25T16:08:16.514Z,99983.86
2023-06-25T16:10:44.174Z,99989.20
2023-06-25T16:13:11.891Z,99992.84
2023-06-25T16:15:40.123Z,99996.16
2023-06-25T16:18:08.182Z,99998.20
2023-06-25T16:20:35.863Z,100002.32
2023-06-25T16:23:03.608Z,99999.70
2023-06-25T16:25:31.289Z,99997.08
2023-06-25T16:27:58.936Z,99990.58
2023-06-25T16:30:26.736Z,99990.57
2023-06-25T16:32:56.750Z,99992.92
2023-06-25T16:35:24.693Z,99996.98
2023-06-25T16:37:52.671Z,99997.15
2023-06-25T16:40:20.522Z,99998.47
2023-06-25T16:42:48.112Z,100002.86
2023-06-25T16:45:16.812Z,100001.55
2023-06-25T16:47:44.555Z,99994.70
2023-06-25T16:50:12.192Z,99986.79
2023-06-25T16:52:39.959Z,99986.63
2023-06-25T16:55:08.358Z,99987.02
2023-06-25T16:57:36.001Z,99988.93
2023-06-25T17:00:04.102Z,99989.56
2023-06-25T17:02:31.772Z,99988.89
2023-06-25T17:04:59.599Z,99991.96
2023-06-25T17:07:27.338Z,99990.55
2023-06-25T17:09:55.300Z,99986.45
2023-06-25T17:12:23.100Z,99986.56
2023-06-25T17:14:50.761Z,99989.59
2023-06-25T17:17:18.464Z,99988.27
2023-06-25T17:19:46.292Z,99986.40
2023-06-25T17:22:14.774Z,99983.55
2023-06-25T17:24:42.535Z,99978.05
2023-06-25T17:27:10.195Z,99976.01
2023-06-25T17:29:38.267Z,99977.40
2023-06-25T17:32:06.722Z,99984.41
2023-06-25T17:34:34.548Z,99985.67
2023-06-25T17:37:02.296Z,99984.50
2023-06-25T17:39:31.480Z,99977.23
2023-06-25T17:41:59.244Z,99981.98
2023-06-25T17:44:27.113Z,99982.23
2023-06-25T17:46:54.791Z,99981.65
2023-06-25T17:49:22.432Z,99973.17
2023-06-25T17:51:50.221Z,99969.64
2023-06-25T17:54:18.577Z,99966.60
2023-06-25T17:56:47.046Z,99964.86
2023-06-25T17:59:16.260Z,99961.44
2023-06-25T18:01:44.504Z,99953.18
2023-06-25T18:04:12.422Z,99951.30
2023-06-25T18:06:40.157Z,99950.95
2023-06-25T18:09:07.922Z,99951.05
2023-06-25T18:11:35.584Z,99950.70
2023-06-25T18:14:03.756Z,99946.95
2023-06-25T18:16:31.430Z,99942.74
2023-06-25T18:18:59.085Z,99939.17
2023-06-25T18:21:27.079Z,99936.84
2023-06-25T18:23:54.713Z,99932.11
2023-06-25T18:26:22.380Z,99935.36
2023-06-25T18:28:50.242Z,99937.83
2023-06-25T18:31:18.036Z,99938.52
2023-06-25T18:33:45.777Z,99940.05
2023-06-25T18:36:13.943Z,99939.10
2023-06-25T18:38:41.706Z,99942.96
2023-06-25T18:41:09.375Z,99940.34
2023-06-25T18:43:38.197Z,99941.66
2023-06-25T18:46:05.821Z,99938.95
2023-06-25T18:48:33.584Z,99937.80
2023-06-25T18:51:01.671Z,99942.11
2023-06-25T18:53:29.316Z,99947.52
2023-06-25T18:55:57.212Z,99944.02
2023-06-25T18:58:24.946Z,99945.06
2023-06-25T19:00:52.606Z,99944.74
2023-06-25T19:03:20.586Z,99946.52
2023-06-25T19:05:48.445Z,99948.09
2023-06-25T19:08:16.221Z,99947.05
2023-06-25T19:10:45.004Z,99951.64
2023-06-25T19:13:12.793Z,99950.92
2023-06-25T19:15:40.542Z,99945.64
2023-06-25T19:18:08.902Z,99944.61
2023-06-25T19:20:37.098Z,99945.44
2023-06-25T19:23:27.820Z,99948.33
2023-06-25T19:25:53.801Z,99949.91
2023-06-25T19:28:21.463Z,99951.63
2023-06-25T19:30:49.418Z,99954.20
2023-06-25T19:33:17.811Z,99958.66
2023-06-25T19:35:45.794Z,99952.07
2023-06-25T19:38:13.754Z,99949.52
2023-06-25T19:40:41.652Z,99950.65
2023-06-25T19:43:09.893Z,99951.86
2023-06-25T19:45:38.171Z,99952.95
2023-06-25T19:48:06.218Z,99952.71
2023-06-25T19:50:34.448Z,99955.04
2023-06-25T19:53:02.174Z,99951.85
2023-06-25T19:55:29.946Z,99951.05
2023-06-25T19:57:58.319Z,99952.78
2023-06-25T20:00:26.110Z,99955.98
2023-06-25T20:02:53.858Z,99954.10
2023-06-25T20:05:21.868Z,99957.08
2023-06-25T20:07:50.508Z,99956.27
2023-06-25T20:10:18.496Z,99951.38
2023-06-25T20:12:49.659Z,99951.70
2023-06-25T20:15:19.020Z,99947.67
2023-06-25T20:17:47.271Z,99945.42
2023-06-25T20:20:15.177Z,99944.84
2023-06-25T20:22:42.958Z,99944.73
2023-06-25T20:25:11.410Z,99942.76
2023-06-25T20:27:39.286Z,99939.95
2023-06-25T20:30:07.870Z,99939.27
2023-06-25T20:32:35.847Z,99939.34
2023-06-25T20:35:04.058Z,99936.19
2023-06-25T20:37:31.665Z,99935.53
2023-06-25T20:39:59.871Z,99938.52
2023-06-25T20:42:27.497Z,99935.98
2023-06-25T20:44:55.060Z,99933.97
2023-06-25T20:47:23.190Z,99932.04
2023-06-25T20:49:51.103Z,99924.42
2023-06-25T20:52:18.780Z,99919.66
2023-06-25T20:54:46.526Z,99912.52
2023-06-25T20:57:14.836Z,99912.02
2023-06-25T20:59:42.571Z,99916.52
2023-06-25T21:02:10.443Z,99917.77
2023-06-25T21:04:38.415Z,99918.09
2023-06-25T21:07:06.071Z,99916.05
2023-06-25T21:09:34.058Z,99913.29
2023-06-25T21:12:01.853Z,99909.91
2023-06-25T21:14:29.597Z,99909.41
2023-06-25T21:16:57.225Z,99908.85
2023-06-25T21:19:24.897Z,99908.33
2023-06-25T21:21:52.858Z,99909.02
2023-06-25T21:24:20.622Z,99908.06
2023-06-25T21:26:48.324Z,99910.80
2023-06-25T21:29:16.763Z,99911.55
2023-06-25T21:31:44.544Z,99916.16
2023-06-25T21:34:12.235Z,99918.79
2023-06-25T21:36:40.777Z,99920.73
2023-06-25T21:39:08.542Z,99920.47
2023-06-25T21:41:36.210Z,99921.75
2023-06-25T21:44:03.892Z,99923.98
2023-06-25T21:46:31.584Z,99922.18
2023-06-25T21:48:59.484Z,99918.60
2023-06-25T21:51:27.269Z,99911.08
2023-06-25T21:53:55.183Z,99908.20
2023-06-25T21:56:23.545Z,99915.49
2023-06-25T21:58:51.808Z,99905.42
2023-06-25T22:01:19.589Z,99900.55
2023-06-25T22:03:48.168Z,99896.35
2023-06-25T22:06:16.031Z,99893.92
2023-06-25T22:08:44.277Z,99891.25
2023-06-25T22:11:11.920Z,99883.08
2023-06-25T22:13:39.666Z,99878.17
2023-06-25T22:16:07.995Z,99871.66
2023-06-25T22:18:39.455Z,99871.03
2023-06-25T22:21:09.306Z,99865.11
2023-06-25T22:23:37.221Z,99863.09
2023-06-25T22:26:05.520Z,99857.67
2023-06-25T22:28:33.451Z,99858.70
2023-06-25T22:31:01.214Z,99855.33
2023-06-25T22:33:28.988Z,99848.93
2023-06-25T22:35:56.999Z,99849.29
2023-06-25T22:38:24.711Z,99847.08
2023-06-25T22:40:52.387Z,99846.68
2023-06-25T22:43:21.793Z,99840.86
2023-06-25T22:45:49.471Z,99838.13
2023-06-25T22:48:17.153Z,99830.52
2023-06-25T22:50:45.180Z,99833.80
2023-06-25T22:53:12.736Z,99832.97
2023-06-25T22:55:40.709Z,99825.90
2023-06-25T22:58:08.626Z,99821.66
2023-06-25T23:00:36.950Z,99818.41
2023-06-25T23:03:05.442Z,99810.94
2023-06-25T23:05:33.530Z,99804.63
2023-06-25T23:08:01.282Z,99805.77
2023-06-25T23:10:28.976Z,99807.61
2023-06-25T23:12:59.671Z,99811.27
2023-06-25T23:15:27.320Z,99809.85
2023-06-25T23:17:56.660Z,99805.45
2023-06-25T23:20:25.904Z,99810.84
2023-06-25T23:22:54.099Z,99809.95
2023-06-25T23:25:29.294Z,99809.65
2023-06-25T23:27:58.926Z,99803.81
2023-06-25T23:30:28.858Z,99803.95
2023-06-25T23:32:56.484Z,99801.20
2023-06-25T23:35:24.398Z,99803.27
2023-06-25T23:37:51.949Z,99801.02
2023-06-25T23:40:19.707Z,99796.94
2023-06-25T23:42:47.418Z,99791.88
2023-06-25T23:45:15.192Z,99791.95
2023-06-25T23:47:42.912Z,99789.17
2023-06-25T23:50:10.675Z,99789.85
2023-06-25T23:52:38.323Z,99785.29
2023-06-25T23:55:06.622Z,99788.36
2023-06-25T23:57:34.262Z,99786.73
